Terminal Aerodrome Forecast
Issued by NWS

Home | Current Version | Previous Version | Text Only | Print | Product List | Glossary On
Versions: 1 2 3 4 5 6 7 8 9 10 11 12 13 14
000
FTUS43 KLSX 191126
TAFSUS
TAF
KSUS 191126Z 1912/2012 33008KT P6SM SCT025 OVC040
      TEMPO 1912/1915 BKN025
     FM191700 36009KT P6SM SCT050
     FM191800 01009KT P6SM SCT200
     FM200100 01005KT P6SM SKC=

USA.gov is the U.S. government's official web portal to all federal, state and local government web resources and services.